| time (UTC) | temp C | wind direction | speed KPH | gust KPH | rain 1hr cm | rain 24hr cm | rain mn cm | humidity % | barometer mb |
| 20260507115842 | 11 | 10 | 0.0 | 1.6 | 0.00 | 0.00 | 0.00 | 78 | 1022.9 |
| 20260507115338 | 11 | 10 | 0.0 | 0.0 | 0.00 | 0.00 | 0.00 | 78 | 1022.9 |
| 20260507114833 | 11 | 10 | 0.0 | 0.0 | 0.00 | 0.00 | 0.00 | 77 | 1022.9 |
| 20260507114331 | 11 | 10 | 0.0 | 0.0 | 0.00 | 0.00 | 0.00 | 78 | 1022.8 |
| 20260507113828 | 11 | 10 | 3.2 | 3.2 | 0.00 | 0.00 | 0.00 | 77 | 1023.0 |
| 20260507113325 | 11 | 324 | 0.0 | 0.0 | 0.00 | 0.00 | 0.00 | 80 | 1023.1 |
| 20260507112823 | 11 | 324 | 0.0 | 0.0 | 0.00 | 0.00 | 0.00 | 78 | 1023.0 |
| 20260507112319 | 11 | 324 | 0.0 | 0.0 | 0.00 | 0.00 | 0.00 | 78 | 1023.1 |
| 20260507111818 | 11 | 324 | 0.0 | 0.0 | 0.00 | 0.00 | 0.00 | 78 | 1022.9 |
| 20260507111314 | 11 | 324 | 0.0 | 0.0 | 0.00 | 0.00 | 0.00 | 77 | 1022.9 |
| 20260507110810 | 11 | 324 | 0.0 | 0.0 | 0.00 | 0.00 | 0.00 | 77 | 1023.0 |
| 20260507110306 | 11 | 324 | 0.0 | 0.0 | 0.00 | 0.00 | 0.00 | 77 | 1022.9 |
| 20260507105803 | 11 | 324 | 0.0 | 0.0 | 0.00 | 0.00 | 0.00 | 77 | 1023.1 |
| 20260507105259 | 11 | 325 | 0.0 | 1.6 | 0.00 | 0.00 | 0.00 | 76 | 1023.1 |
| 20260507104757 | 11 | 324 | 0.0 | 1.6 | 0.00 | 0.00 | 0.00 | 77 | 1023.2 |
| 20260507104253 | 11 | 324 | 0.0 | 0.0 | 0.00 | 0.00 | 0.00 | 76 | 1023.3 |
| 20260507103749 | 11 | 324 | 0.0 | 0.0 | 0.00 | 0.00 | 0.00 | 76 | 1023.2 |
| 20260507103245 | 11 | 307 | 0.0 | 0.0 | 0.00 | 0.00 | 0.00 | 76 | 1023.4 |
| 20260507102742 | 11 | 307 | 0.0 | 1.6 | 0.00 | 0.00 | 0.00 | 76 | 1023.4 |
| 20260507102239 | 11 | 282 | 0.0 | 4.8 | 0.00 | 0.00 | 0.00 | 75 | 1023.3 |
| 20260507101735 | 11 | 358 | 0.0 | 0.0 | 0.00 | 0.00 | 0.00 | 75 | 1023.4 |
| 20260507101231 | 11 | 358 | 3.2 | 3.2 | 0.00 | 0.00 | 0.00 | 75 | 1023.2 |
| 20260507100728 | 11 | 0 | 3.2 | 3.2 | 0.00 | 0.00 | 0.00 | 75 | 1023.5 |
| 20260507100226 | 11 | 0 | 1.6 | 3.2 | 0.00 | 0.00 | 0.00 | 74 | 1023.3 |
| 20260507095724 | 11 | 324 | 0.0 | 0.0 | 0.00 | 0.00 | 0.00 | 75 | 1023.3 |
| 20260507095220 | 11 | 324 | 0.0 | 1.6 | 0.00 | 0.00 | 0.00 | 74 | 1023.3 |
| 20260507094717 | 11 | 323 | 0.0 | 1.6 | 0.00 | 0.00 | 0.00 | 74 | 1023.5 |
| 20260507094214 | 11 | 323 | 1.6 | 1.6 | 0.00 | 0.00 | 0.00 | 73 | 1023.4 |
| 20260507093711 | 11 | 339 | 0.0 | 1.6 | 0.00 | 0.00 | 0.00 | 74 | 1023.6 |
| 20260507093210 | 11 | 351 | 0.0 | 0.0 | 0.00 | 0.00 | 0.00 | 74 | 1023.7 |
| 20260507092706 | 11 | 351 | 0.0 | 1.6 | 0.00 | 0.00 | 0.00 | 75 | 1023.6 |
| 20260507092203 | 11 | 5 | 0.0 | 1.6 | 0.00 | 0.00 | 0.00 | 75 | 1023.7 |
| 20260507091659 | 11 | 261 | 3.2 | 4.8 | 0.00 | 0.00 | 0.00 | 74 | 1023.6 |
| 20260507091156 | 11 | 348 | 1.6 | 1.6 | 0.00 | 0.00 | 0.00 | 75 | 1023.8 |
| 20260507090651 | 11 | 22 | 1.6 | 3.2 | 0.00 | 0.00 | 0.00 | 75 | 1023.6 |
| 20260507090148 | 11 | 1 | 0.0 | 0.0 | 0.00 | 0.00 | 0.00 | 76 | 1023.8 |
| 20260507085645 | 11 | 54 | 0.0 | 1.6 | 0.00 | 0.00 | 0.00 | 76 | 1023.7 |
| 20260507085142 | 11 | 53 | 1.6 | 1.6 | 0.00 | 0.00 | 0.00 | 75 | 1023.6 |
| 20260507084639 | 11 | 8 | 3.2 | 4.8 | 0.00 | 0.00 | 0.00 | 76 | 1023.8 |
| 20260507084135 | 12 | 289 | 0.0 | 1.6 | 0.00 | 0.00 | 0.00 | 77 | 1023.7 |
| 20260507083632 | 12 | 279 | 1.6 | 1.6 | 0.00 | 0.00 | 0.00 | 77 | 1023.5 |
| 20260507083129 | 12 | 278 | 1.6 | 1.6 | 0.00 | 0.00 | 0.00 | 77 | 1023.8 |
| 20260507082625 | 12 | 12 | 0.0 | 0.0 | 0.00 | 0.00 | 0.00 | 78 | 1023.6 |
| 20260507082122 | 12 | 12 | 0.0 | 0.0 | 0.00 | 0.00 | 0.00 | 77 | 1023.8 |
| 20260507081618 | 12 | 12 | 0.0 | 1.6 | 0.00 | 0.00 | 0.00 | 77 | 1023.6 |
| 20260507081115 | 12 | 5 | 0.0 | 4.8 | 0.00 | 0.00 | 0.00 | 77 | 1023.5 |
| 20260507080611 | 12 | 50 | 0.0 | 1.6 | 0.00 | 0.00 | 0.00 | 77 | 1023.7 |
| 20260507080108 | 12 | 41 | 0.0 | 0.0 | 0.00 | 0.00 | 0.00 | 77 | 1023.6 |
| 20260507075603 | 12 | 41 | 1.6 | 1.6 | 0.00 | 0.00 | 0.00 | 76 | 1023.7 |
| 20260507075059 | 12 | 42 | 0.0 | 6.4 | 0.00 | 0.00 | 0.00 | 76 | 1023.6 |
| 20260507074556 | 12 | 63 | 1.6 | 3.2 | 0.00 | 0.00 | 0.00 | 76 | 1023.9 |
| 20260507074054 | 12 | 12 | 0.0 | 3.2 | 0.00 | 0.00 | 0.00 | 76 | 1023.8 |
| 20260507073550 | 12 | 10 | 3.2 | 3.2 | 0.00 | 0.00 | 0.00 | 76 | 1023.7 |
| 20260507073047 | 12 | 354 | 1.6 | 3.2 | 0.00 | 0.00 | 0.00 | 76 | 1023.8 |
| 20260507072544 | 12 | 350 | 1.6 | 1.6 | 0.00 | 0.00 | 0.00 | 76 | 1023.6 |
| 20260507072041 | 12 | 13 | 1.6 | 6.4 | 0.00 | 0.00 | 0.00 | 76 | 1023.5 |
| 20260507071539 | 12 | 26 | 0.0 | 3.2 | 0.00 | 0.00 | 0.00 | 76 | 1023.3 |
| 20260507071035 | 12 | 348 | 3.2 | 4.8 | 0.00 | 0.00 | 0.00 | 76 | 1023.5 |
| 20260507070532 | 12 | 276 | 0.0 | 0.0 | 0.00 | 0.00 | 0.00 | 77 | 1023.5 |
| 20260507070030 | 12 | 270 | 0.0 | 0.0 | 0.00 | 0.00 | 0.00 | 78 | 1023.6 |
| 20260507065526 | 12 | 330 | 0.0 | 0.0 | 0.00 | 0.00 | 0.00 | 78 | 1023.7 |
| 20260507065023 | 12 | 330 | 1.6 | 1.6 | 0.00 | 0.00 | 0.00 | 77 | 1023.6 |
| 20260507064521 | 12 | 329 | 0.0 | 0.0 | 0.00 | 0.00 | 0.00 | 77 | 1023.5 |
| 20260507064019 | 12 | 63 | 0.0 | 0.0 | 0.00 | 0.00 | 0.00 | 77 | 1023.6 |
| 20260507063516 | 12 | 53 | 4.8 | 4.8 | 0.00 | 0.00 | 0.00 | 77 | 1023.6 |
| 20260507063013 | 12 | 41 | 0.0 | 0.0 | 0.00 | 0.00 | 0.00 | 77 | 1023.7 |
| 20260507062510 | 12 | 7 | 1.6 | 4.8 | 0.00 | 0.00 | 0.00 | 77 | 1023.7 |
| 20260507062008 | 12 | 15 | 1.6 | 1.6 | 0.00 | 0.00 | 0.00 | 77 | 1023.8 |
| 20260507061505 | 12 | 40 | 1.6 | 1.6 | 0.00 | 0.00 | 0.00 | 77 | 1023.7 |
| 20260507061003 | 12 | 26 | 3.2 | 4.8 | 0.00 | 0.00 | 0.00 | 76 | 1023.6 |
| 20260507060500 | 12 | 352 | 0.0 | 4.8 | 0.00 | 0.00 | 0.00 | 76 | 1023.8 |
| 20260507055956 | 12 | 15 | 3.2 | 4.8 | 0.00 | 0.00 | 0.00 | 76 | 1023.8 |
| 20260507055452 | 12 | 348 | 1.6 | 1.6 | 0.00 | 0.00 | 0.00 | 76 | 1023.7 |
| 20260507054949 | 12 | 51 | 0.0 | 6.4 | 0.00 | 0.00 | 0.00 | 76 | 1023.4 |
| 20260507054444 | 12 | 325 | 4.8 | 6.4 | 0.00 | 0.00 | 0.00 | 76 | 1023.5 |
| 20260507053942 | 12 | 52 | 3.2 | 4.8 | 0.00 | 0.00 | 0.00 | 76 | 1023.7 |
| 20260507053440 | 13 | 44 | 3.2 | 4.8 | 0.00 | 0.00 | 0.00 | 76 | 1023.7 |
| 20260507052938 | 13 | 39 | 4.8 | 6.4 | 0.00 | 0.00 | 0.00 | 75 | 1023.6 |
| 20260507052435 | 13 | 45 | 3.2 | 4.8 | 0.00 | 0.00 | 0.00 | 75 | 1023.7 |
| 20260507051932 | 13 | 5 | 3.2 | 6.4 | 0.00 | 0.00 | 0.00 | 75 | 1023.8 |
| 20260507051430 | 13 | 54 | 1.6 | 6.4 | 0.00 | 0.00 | 0.00 | 75 | 1023.7 |
| 20260507050926 | 13 | 33 | 1.6 | 1.6 | 0.00 | 0.00 | 0.00 | 75 | 1023.5 |
| 20260507050423 | 13 | 49 | 3.2 | 4.8 | 0.00 | 0.00 | 0.00 | 75 | 1023.6 |
| 20260507045920 | 13 | 37 | 1.6 | 11.3 | 0.00 | 0.00 | 0.00 | 74 | 1023.6 |
| 20260507045416 | 13 | 337 | 3.2 | 4.8 | 0.00 | 0.00 | 0.00 | 74 | 1023.6 |
| 20260507044914 | 13 | 18 | 3.2 | 6.4 | 0.00 | 0.00 | 0.00 | 74 | 1023.6 |
| 20260507044410 | 13 | 41 | 3.2 | 11.3 | 0.00 | 0.00 | 0.00 | 74 | 1023.5 |
| 20260507043906 | 13 | 351 | 0.0 | 1.6 | 0.00 | 0.00 | 0.00 | 74 | 1023.3 |
| 20260507043403 | 13 | 299 | 3.2 | 6.4 | 0.00 | 0.00 | 0.00 | 74 | 1023.4 |
| 20260507042859 | 13 | 10 | 1.6 | 3.2 | 0.00 | 0.00 | 0.00 | 74 | 1023.4 |
| 20260507042356 | 14 | 335 | 3.2 | 3.2 | 0.00 | 0.00 | 0.00 | 74 | 1023.3 |
| 20260507041852 | 14 | 344 | 0.0 | 1.6 | 0.00 | 0.00 | 0.00 | 74 | 1023.5 |
| 20260507041349 | 14 | 10 | 1.6 | 1.6 | 0.00 | 0.00 | 0.00 | 74 | 1023.4 |
| 20260507040846 | 14 | 101 | 0.0 | 6.4 | 0.00 | 0.00 | 0.00 | 73 | 1023.2 |
| 20260507040342 | 14 | 34 | 6.4 | 11.3 | 0.00 | 0.00 | 0.00 | 73 | 1023.1 |
| 20260507035838 | 14 | 36 | 1.6 | 9.7 | 0.00 | 0.00 | 0.00 | 75 | 1023.0 |
| 20260507035333 | 14 | 337 | 1.6 | 3.2 | 0.00 | 0.00 | 0.00 | 75 | 1022.9 |
| 20260507034831 | 15 | 343 | 1.6 | 11.3 | 0.00 | 0.00 | 0.00 | 74 | 1023.0 |
| 20260507034328 | 14 | 38 | 1.6 | 1.6 | 0.00 | 0.00 | 0.00 | 74 | 1022.8 |
| 20260507033826 | 14 | 20 | 3.2 | 6.4 | 0.00 | 0.00 | 0.00 | 74 | 1022.7 |
| 20260507033324 | 14 | 283 | 8.0 | 9.7 | 0.00 | 0.00 | 0.00 | 75 | 1022.7 |
| 20260507032820 | 14 | 334 | 6.4 | 9.7 | 0.00 | 0.00 | 0.00 | 75 | 1022.7 |
| 20260507032317 | 14 | 297 | 3.2 | 4.8 | 0.00 | 0.00 | 0.00 | 76 | 1022.4 |
| 20260507031813 | 14 | 283 | 0.0 | 1.6 | 0.00 | 0.00 | 0.00 | 75 | 1022.4 |
| 20260507031310 | 15 | 278 | 3.2 | 6.4 | 0.00 | 0.00 | 0.00 | 75 | 1022.4 |
| 20260507030806 | 15 | 23 | 3.2 | 3.2 | 0.00 | 0.00 | 0.00 | 74 | 1022.3 |
| 20260507030305 | 15 | 266 | 0.0 | 4.8 | 0.00 | 0.00 | 0.00 | 74 | 1022.3 |
| 20260507025801 | 15 | 276 | 0.0 | 3.2 | 0.00 | 0.00 | 0.00 | 73 | 1022.2 |
| 20260507025258 | 16 | 276 | 0.0 | 3.2 | 0.00 | 0.00 | 0.00 | 72 | 1022.2 |
| 20260507024756 | 16 | 277 | 3.2 | 9.7 | 0.00 | 0.00 | 0.00 | 71 | 1022.2 |
| 20260507024253 | 16 | 276 | 1.6 | 4.8 | 0.00 | 0.00 | 0.00 | 71 | 1021.8 |
| 20260507023749 | 16 | 30 | 1.6 | 6.4 | 0.00 | 0.00 | 0.00 | 70 | 1022.2 |
| 20260507023246 | 16 | 52 | 3.2 | 3.2 | 0.00 | 0.00 | 0.00 | 69 | 1022.1 |
| 20260507022743 | 17 | 280 | 6.4 | 9.7 | 0.00 | 0.00 | 0.00 | 68 | 1022.0 |
| 20260507022239 | 17 | 293 | 1.6 | 4.8 | 0.00 | 0.00 | 0.00 | 69 | 1022.1 |
| 20260507021736 | 17 | 271 | 4.8 | 4.8 | 0.00 | 0.00 | 0.00 | 69 | 1021.9 |
| 20260507021231 | 16 | 6 | 1.6 | 11.3 | 0.00 | 0.00 | 0.00 | 69 | 1022.1 |
| 20260507020730 | 17 | 330 | 1.6 | 6.4 | 0.00 | 0.00 | 0.00 | 69 | 1022.2 |
| 20260507020226 | 17 | 352 | 1.6 | 3.2 | 0.00 | 0.00 | 0.00 | 70 | 1022.0 |
| 20260507015723 | 17 | 337 | 3.2 | 9.7 | 0.00 | 0.00 | 0.00 | 69 | 1022.0 |
| 20260507015221 | 17 | 313 | 0.0 | 3.2 | 0.00 | 0.00 | 0.00 | 70 | 1022.1 |
| 20260507014717 | 17 | 264 | 3.2 | 4.8 | 0.00 | 0.00 | 0.00 | 68 | 1022.1 |
| 20260507014213 | 17 | 42 | 3.2 | 6.4 | 0.00 | 0.00 | 0.00 | 69 | 1022.4 |
| 20260507013710 | 18 | 35 | 1.6 | 3.2 | 0.00 | 0.00 | 0.00 | 68 | 1022.1 |
| 20260507013208 | 18 | 8 | 1.6 | 3.2 | 0.00 | 0.00 | 0.00 | 68 | 1022.1 |
| 20260507012705 | 18 | 352 | 1.6 | 4.8 | 0.00 | 0.00 | 0.00 | 69 | 1021.9 |
| 20260507012200 | 18 | 260 | 4.8 | 4.8 | 0.00 | 0.00 | 0.00 | 68 | 1021.9 |
| 20260507011658 | 18 | 18 | 4.8 | 4.8 | 0.00 | 0.00 | 0.00 | 68 | 1021.8 |
| 20260507011154 | 19 | 354 | 0.0 | 6.4 | 0.00 | 0.00 | 0.00 | 67 | 1021.9 |
| 20260507010649 | 19 | 55 | 1.6 | 1.6 | 0.00 | 0.00 | 0.00 | 65 | 1022.0 |
| 20260507010145 | 19 | 83 | 0.0 | 1.6 | 0.00 | 0.00 | 0.00 | 65 | 1021.9 |
| 20260507005643 | 19 | 83 | 0.0 | 0.0 | 0.00 | 0.00 | 0.00 | 66 | 1022.0 |
| 20260507005139 | 19 | 86 | 0.0 | 0.0 | 0.00 | 0.00 | 0.00 | 64 | 1021.9 |
| 20260507004636 | 19 | 86 | 0.0 | 1.6 | 0.00 | 0.00 | 0.00 | 65 | 1021.9 |
| 20260507004133 | 19 | 86 | 0.0 | 0.0 | 0.00 | 0.00 | 0.00 | 66 | 1021.8 |
| 20260507003630 | 19 | 86 | 0.0 | 1.6 | 0.00 | 0.00 | 0.00 | 67 | 1021.6 |
| 20260507003130 | 19 | 98 | 1.6 | 3.2 | 0.00 | 0.00 | 0.00 | 67 | 1021.8 |
| 20260507002626 | 19 | 98 | 0.0 | 1.6 | 0.00 | 0.00 | 0.00 | 67 | 1021.9 |
| 20260507002122 | 19 | 62 | 1.6 | 3.2 | 0.00 | 0.00 | 0.00 | 66 | 1021.9 |
| 20260507001619 | 19 | 49 | 3.2 | 4.8 | 0.00 | 0.00 | 0.00 | 63 | 1022.0 |
| 20260507001117 | 20 | 326 | 0.0 | 0.0 | 0.00 | 0.00 | 0.00 | 67 | 1022.0 |
| 20260507000613 | 20 | 60 | 0.0 | 3.2 | 0.00 | 0.00 | 0.00 | 66 | 1021.9 |
| 20260507000108 | 20 | 29 | 0.0 | 3.2 | 0.00 | 0.00 | 0.00 | 64 | 1021.9 |
| 20260506235606 | 20 | 154 | 0.0 | 1.6 | 0.00 | 0.00 | 0.00 | 61 | 1021.8 |
| 20260506235106 | 20 | 121 | 3.2 | 3.2 | 0.00 | 0.00 | 0.00 | 61 | 1022.0 |
| 20260506234604 | 20 | 328 | 1.6 | 3.2 | 0.00 | 0.00 | 0.00 | 60 | 1021.9 |
| 20260506234101 | 20 | 326 | 3.2 | 3.2 | 0.00 | 0.00 | 0.00 | 61 | 1021.8 |
| 20260506233557 | 20 | 261 | 3.2 | 3.2 | 0.00 | 0.00 | 0.00 | 62 | 1022.1 |
| 20260506233054 | 20 | 300 | 4.8 | 4.8 | 0.00 | 0.00 | 0.00 | 58 | 1022.0 |
| 20260506232550 | 20 | 280 | 3.2 | 6.4 | 0.00 | 0.00 | 0.00 | 60 | 1022.1 |
| 20260506232046 | 20 | 145 | 3.2 | 9.7 | 0.00 | 0.00 | 0.00 | 63 | 1022.0 |
| 20260506231544 | 20 | 193 | 1.6 | 3.2 | 0.00 | 0.00 | 0.00 | 63 | 1022.2 |
| 20260506231042 | 20 | 89 | 3.2 | 3.2 | 0.00 | 0.00 | 0.00 | 61 | 1022.3 |
| 20260506230538 | 20 | 357 | 1.6 | 3.2 | 0.00 | 0.00 | 0.00 | 61 | 1022.3 |
| 20260506230035 | 20 | 232 | 1.6 | 4.8 | 0.00 | 0.00 | 0.00 | 61 | 1022.5 |
| 20260506225532 | 20 | 200 | 1.6 | 6.4 | 0.00 | 0.00 | 0.00 | 62 | 1022.5 |
| 20260506225028 | 20 | 324 | 0.0 | 3.2 | 0.00 | 0.00 | 0.00 | 62 | 1022.5 |
| 20260506224525 | 20 | 9 | 3.2 | 4.8 | 0.00 | 0.00 | 0.00 | 65 | 1022.6 |
| 20260506224022 | 19 | 35 | 0.0 | 3.2 | 0.00 | 0.00 | 0.00 | 65 | 1022.6 |
| 20260506223517 | 18 | 298 | 1.6 | 3.2 | 0.00 | 0.00 | 0.00 | 64 | 1022.6 |
| 20260506223014 | 18 | 278 | 1.6 | 3.2 | 0.00 | 0.00 | 0.00 | 66 | 1022.6 |
| 20260506222511 | 18 | 251 | 4.8 | 4.8 | 0.00 | 0.00 | 0.00 | 66 | 1022.6 |
| 20260506222007 | 18 | 231 | 4.8 | 4.8 | 0.00 | 0.00 | 0.00 | 65 | 1022.9 |
| 20260506221505 | 18 | 270 | 4.8 | 6.4 | 0.00 | 0.00 | 0.00 | 66 | 1022.9 |
| 20260506221003 | 18 | 223 | 3.2 | 17.7 | 0.00 | 0.00 | 0.00 | 67 | 1022.8 |
| 20260506220503 | 18 | 124 | 0.0 | 6.4 | 0.00 | 0.00 | 0.00 | 70 | 1022.7 |
| 20260506220000 | 19 | 162 | 6.4 | 12.9 | 0.00 | 0.00 | 0.00 | 65 | 1022.5 |
| 20260506215456 | 18 | 200 | 4.8 | 6.4 | 0.00 | 0.00 | 0.00 | 67 | 1022.7 |
| 20260506214952 | 18 | 93 | 1.6 | 4.8 | 0.00 | 0.00 | 0.00 | 69 | 1022.5 |
| 20260506214449 | 19 | 224 | 6.4 | 6.4 | 0.00 | 0.00 | 0.00 | 62 | 1022.9 |
| 20260506213947 | 19 | 180 | 4.8 | 6.4 | 0.00 | 0.00 | 0.00 | 67 | 1022.8 |
| 20260506213444 | 18 | 141 | 3.2 | 4.8 | 0.00 | 0.00 | 0.00 | 68 | 1022.9 |
| 20260506212941 | 18 | 131 | 4.8 | 6.4 | 0.00 | 0.00 | 0.00 | 70 | 1023.0 |
| 20260506212437 | 18 | 192 | 3.2 | 4.8 | 0.00 | 0.00 | 0.00 | 70 | 1023.1 |
| 20260506211937 | 18 | 225 | 0.0 | 3.2 | 0.00 | 0.00 | 0.00 | 70 | 1023.1 |
| 20260506211434 | 17 | 265 | 3.2 | 9.7 | 0.00 | 0.00 | 0.00 | 71 | 1023.1 |
| 20260506210931 | 17 | 173 | 1.6 | 6.4 | 0.00 | 0.00 | 0.00 | 70 | 1023.1 |
| 20260506210427 | 17 | 220 | 1.6 | 4.8 | 0.00 | 0.00 | 0.00 | 71 | 1023.2 |
| 20260506205925 | 17 | 185 | 9.7 | 12.9 | 0.00 | 0.00 | 0.00 | 68 | 1022.9 |
| 20260506205421 | 17 | 252 | 3.2 | 3.2 | 0.00 | 0.00 | 0.00 | 71 | 1023.0 |
| 20260506204917 | 17 | 155 | 3.2 | 3.2 | 0.00 | 0.00 | 0.00 | 73 | 1023.1 |
| 20260506204415 | 17 | 166 | 4.8 | 6.4 | 0.00 | 0.00 | 0.00 | 70 | 1022.9 |
| 20260506203912 | 18 | 213 | 4.8 | 6.4 | 0.00 | 0.00 | 0.00 | 67 | 1022.9 |
| 20260506203409 | 18 | 140 | 3.2 | 3.2 | 0.00 | 0.00 | 0.00 | 70 | 1023.1 |
| 20260506202906 | 17 | 168 | 4.8 | 9.7 | 0.00 | 0.00 | 0.00 | 74 | 1023.1 |
| 20260506202404 | 17 | 181 | 1.6 | 6.4 | 0.00 | 0.00 | 0.00 | 72 | 1023.3 |
| 20260506201900 | 16 | 176 | 1.6 | 3.2 | 0.00 | 0.00 | 0.00 | 74 | 1023.3 |
| 20260506201357 | 16 | 169 | 4.8 | 6.4 | 0.00 | 0.00 | 0.00 | 75 | 1023.3 |
| 20260506200854 | 16 | 218 | 4.8 | 9.7 | 0.00 | 0.00 | 0.00 | 72 | 1023.4 |
| 20260506200350 | 16 | 216 | 3.2 | 9.7 | 0.00 | 0.00 | 0.00 | 76 | 1023.4 |
| 20260506195846 | 16 | 183 | 4.8 | 6.4 | 0.00 | 0.00 | 0.00 | 75 | 1023.5 |
| 20260506195344 | 16 | 168 | 3.2 | 6.4 | 0.00 | 0.00 | 0.00 | 75 | 1023.4 |
| 20260506194840 | 16 | 211 | 3.2 | 4.8 | 0.00 | 0.00 | 0.00 | 75 | 1023.7 |
| 20260506194337 | 16 | 216 | 3.2 | 4.8 | 0.00 | 0.00 | 0.00 | 76 | 1023.5 |
| 20260506193834 | 16 | 234 | 0.0 | 4.8 | 0.00 | 0.00 | 0.00 | 76 | 1023.6 |
| 20260506193331 | 16 | 169 | 6.4 | 6.4 | 0.00 | 0.00 | 0.00 | 75 | 1023.5 |
| 20260506192827 | 16 | 185 | 3.2 | 9.7 | 0.00 | 0.00 | 0.00 | 74 | 1023.4 |
| 20260506192324 | 16 | 232 | 1.6 | 6.4 | 0.00 | 0.00 | 0.00 | 74 | 1023.2 |
| 20260506191821 | 16 | 189 | 6.4 | 9.7 | 0.00 | 0.00 | 0.00 | 75 | 1023.3 |
| 20260506191318 | 16 | 229 | 0.0 | 9.7 | 0.00 | 0.00 | 0.00 | 75 | 1023.3 |
| 20260506190815 | 16 | 221 | 1.6 | 4.8 | 0.00 | 0.00 | 0.00 | 76 | 1023.4 |
| 20260506190311 | 16 | 137 | 0.0 | 4.8 | 0.00 | 0.00 | 0.00 | 77 | 1023.2 |
| 20260506185808 | 16 | 106 | 6.4 | 9.7 | 0.00 | 0.00 | 0.00 | 74 | 1023.3 |
| 20260506185307 | 16 | 204 | 6.4 | 9.7 | 0.00 | 0.00 | 0.00 | 73 | 1023.4 |
| 20260506184802 | 16 | 249 | 1.6 | 6.4 | 0.00 | 0.00 | 0.00 | 75 | 1023.2 |
| 20260506184259 | 16 | 175 | 0.0 | 4.8 | 0.00 | 0.00 | 0.00 | 76 | 1023.4 |
| 20260506183756 | 16 | 216 | 4.8 | 9.7 | 0.00 | 0.00 | 0.00 | 74 | 1023.3 |
| 20260506183257 | 15 | 124 | 0.0 | 1.6 | 0.00 | 0.00 | 0.00 | 77 | 1023.4 |
| 20260506182754 | 16 | 138 | 6.4 | 9.7 | 0.00 | 0.00 | 0.00 | 74 | 1023.3 |
| 20260506182251 | 15 | 294 | 1.6 | 3.2 | 0.00 | 0.00 | 0.00 | 77 | 1023.3 |
| 20260506181749 | 15 | 215 | 4.8 | 6.4 | 0.00 | 0.00 | 0.00 | 76 | 1023.4 |
| 20260506181246 | 15 | 221 | 3.2 | 9.7 | 0.00 | 0.00 | 0.00 | 77 | 1023.5 |
| 20260506180743 | 15 | 188 | 4.8 | 6.4 | 0.00 | 0.00 | 0.00 | 76 | 1023.3 |
| 20260506180239 | 15 | 196 | 0.0 | 3.2 | 0.00 | 0.00 | 0.00 | 80 | 1023.3 |
| 20260506175735 | 15 | 222 | 3.2 | 4.8 | 0.00 | 0.00 | 0.00 | 78 | 1023.4 |
| 20260506175232 | 15 | 176 | 4.8 | 6.4 | 0.00 | 0.00 | 0.00 | 78 | 1023.3 |
| 20260506174730 | 15 | 159 | 8.0 | 9.7 | 0.00 | 0.00 | 0.00 | 78 | 1022.9 |
| 20260506174227 | 15 | 175 | 4.8 | 6.4 | 0.00 | 0.00 | 0.00 | 82 | 1023.0 |
| 20260506173725 | 15 | 130 | 1.6 | 4.8 | 0.00 | 0.00 | 0.00 | 81 | 1023.1 |
| 20260506173221 | 14 | 158 | 6.4 | 9.7 | 0.00 | 0.00 | 0.00 | 79 | 1023.2 |
| 20260506172718 | 14 | 238 | 3.2 | 6.4 | 0.00 | 0.00 | 0.00 | 80 | 1023.1 |
| 20260506172215 | 14 | 179 | 3.2 | 4.8 | 0.00 | 0.00 | 0.00 | 81 | 1023.2 |
| 20260506171712 | 14 | 180 | 0.0 | 3.2 | 0.00 | 0.00 | 0.00 | 81 | 1023.4 |
| 20260506171210 | 14 | 207 | 4.8 | 6.4 | 0.00 | 0.00 | 0.00 | 79 | 1023.1 |
| 20260506170707 | 14 | 203 | 3.2 | 3.2 | 0.00 | 0.00 | 0.00 | 80 | 1023.1 |
| 20260506170204 | 14 | 167 | 4.8 | 9.7 | 0.00 | 0.00 | 0.00 | 81 | 1023.1 |
| 20260506165702 | 14 | 246 | 1.6 | 9.7 | 0.00 | 0.00 | 0.00 | 83 | 1023.1 |
| 20260506165158 | 14 | 128 | 4.8 | 6.4 | 0.00 | 0.00 | 0.00 | 82 | 1023.1 |
| 20260506164655 | 14 | 206 | 1.6 | 3.2 | 0.00 | 0.00 | 0.00 | 81 | 1023.1 |
| 20260506164153 | 14 | 181 | 4.8 | 6.4 | 0.00 | 0.00 | 0.00 | 81 | 1023.1 |
| 20260506163649 | 14 | 213 | 3.2 | 6.4 | 0.00 | 0.00 | 0.00 | 80 | 1022.9 |
| 20260506163144 | 14 | 219 | 1.6 | 6.4 | 0.00 | 0.00 | 0.00 | 82 | 1022.9 |
| 20260506162641 | 13 | 205 | 3.2 | 6.4 | 0.00 | 0.00 | 0.00 | 82 | 1022.7 |
| 20260506162138 | 13 | 143 | 0.0 | 3.2 | 0.00 | 0.00 | 0.00 | 83 | 1023.1 |
| 20260506161635 | 13 | 232 | 3.2 | 4.8 | 0.00 | 0.00 | 0.00 | 82 | 1022.8 |
| 20260506161132 | 13 | 198 | 0.0 | 1.6 | 0.00 | 0.00 | 0.00 | 83 | 1022.7 |
| 20260506160630 | 14 | 193 | 0.0 | 3.2 | 0.00 | 0.00 | 0.00 | 82 | 1022.5 |
| 20260506160126 | 14 | 168 | 3.2 | 6.4 | 0.00 | 0.00 | 0.00 | 83 | 1022.2 |
| 20260506155625 | 13 | 168 | 3.2 | 6.4 | 0.00 | 0.00 | 0.00 | 85 | 1022.3 |
| 20260506155122 | 13 | 204 | 6.4 | 6.4 | 0.00 | 0.00 | 0.00 | 86 | 1022.9 |
| 20260506153218 | 13 | 211 | 3.2 | 4.8 | 0.00 | 0.00 | 0.00 | 85 | 1023.0 |
| 20260506152715 | 13 | 184 | 3.2 | 4.8 | 0.00 | 0.00 | 0.00 | 85 | 1023.1 |
| 20260506152212 | 13 | 189 | 1.6 | 4.8 | 0.00 | 0.00 | 0.00 | 84 | 1022.9 |
| 20260506151712 | 13 | 229 | 1.6 | 3.2 | 0.00 | 0.00 | 0.00 | 84 | 1023.1 |
| 20260506151208 | 13 | 226 | 3.2 | 6.4 | 0.00 | 0.00 | 0.00 | 84 | 1023.0 |
| 20260506150704 | 13 | 279 | 3.2 | 6.4 | 0.00 | 0.00 | 0.00 | 85 | 1023.0 |
| 20260506150201 | 13 | 201 | 3.2 | 3.2 | 0.00 | 0.00 | 0.00 | 86 | 1022.8 |
| 20260506145658 | 13 | 218 | 3.2 | 3.2 | 0.00 | 0.00 | 0.00 | 85 | 1022.9 |
| 20260506145155 | 13 | 290 | 1.6 | 3.2 | 0.00 | 0.00 | 0.00 | 85 | 1023.0 |
| 20260506144653 | 13 | 275 | 4.8 | 4.8 | 0.00 | 0.00 | 0.00 | 85 | 1022.9 |
| 20260506144149 | 13 | 276 | 6.4 | 4.8 | 0.00 | 0.00 | 0.00 | 83 | 1022.5 |
| 20260506143647 | 13 | 282 | 3.2 | 3.2 | 0.00 | 0.00 | 0.00 | 83 | 1022.3 |
| 20260506143144 | 13 | 179 | 0.0 | 0.0 | 0.00 | 0.00 | 0.00 | 85 | 1022.0 |
| 20260506142643 | 13 | 181 | 1.6 | 3.2 | 0.00 | 0.00 | 0.00 | 85 | 1021.9 |
| 20260506142140 | 13 | 125 | 0.0 | 0.0 | 0.00 | 0.00 | 0.00 | 86 | 1021.9 |
| 20260506141638 | 13 | 225 | 0.0 | 3.2 | 0.00 | 0.00 | 0.00 | 86 | 1022.0 |
| 20260506141136 | 13 | 214 | 1.6 | 4.8 | 0.00 | 0.00 | 0.00 | 86 | 1022.1 |
| 20260506140633 | 13 | 130 | 0.0 | 1.6 | 0.00 | 0.00 | 0.00 | 87 | 1022.1 |
| 20260506140130 | 13 | 209 | 1.6 | 1.6 | 0.00 | 0.00 | 0.00 | 86 | 1021.9 |
| 20260506135627 | 13 | 210 | 3.2 | 4.8 | 0.00 | 0.00 | 0.00 | 86 | 1021.9 |
| 20260506135123 | 13 | 141 | 0.0 | 1.6 | 0.00 | 0.00 | 0.00 | 86 | 1022.0 |
| 20260506134620 | 13 | 142 | 0.0 | 0.0 | 0.00 | 0.00 | 0.00 | 86 | 1022.0 |
| 20260506134115 | 13 | 208 | 0.0 | 1.6 | 0.00 | 0.00 | 0.00 | 86 | 1021.8 |
| 20260506133613 | 13 | 198 | 0.0 | 0.0 | 0.00 | 0.00 | 0.00 | 86 | 1021.8 |
| 20260506133110 | 13 | 198 | 0.0 | 0.0 | 0.00 | 0.00 | 0.00 | 86 | 1021.8 |
| 20260506132608 | 13 | 198 | 0.0 | 0.0 | 0.00 | 0.00 | 0.00 | 86 | 1021.9 |
| 20260506132104 | 13 | 198 | 0.0 | 1.6 | 0.00 | 0.00 | 0.00 | 85 | 1021.9 |
| 20260506131602 | 13 | 243 | 1.6 | 1.6 | 0.00 | 0.00 | 0.00 | 86 | 1021.9 |
| 20260506131058 | 12 | 266 | 0.0 | 0.0 | 0.00 | 0.00 | 0.00 | 85 | 1021.8 |
| 20260506130555 | 12 | 266 | 0.0 | 0.0 | 0.00 | 0.00 | 0.00 | 86 | 1021.8 |
| 20260506130053 | 12 | 266 | 0.0 | 0.0 | 0.00 | 0.00 | 0.00 | 86 | 1021.8 |
| 20260506125551 | 12 | 266 | 0.0 | 0.0 | 0.00 | 0.00 | 0.00 | 87 | 1021.7 |
| 20260506125048 | 13 | 266 | 0.0 | 0.0 | 0.00 | 0.00 | 0.00 | 86 | 1021.6 |
| 20260506124546 | 13 | 266 | 0.0 | 0.0 | 0.00 | 0.00 | 0.00 | 84 | 1021.7 |
| 20260506124043 | 13 | 266 | 0.0 | 0.0 | 0.00 | 0.00 | 0.00 | 84 | 1021.7 |
| 20260506123541 | 13 | 266 | 0.0 | 0.0 | 0.00 | 0.00 | 0.00 | 84 | 1021.7 |
| 20260506123039 | 13 | 266 | 0.0 | 0.0 | 0.00 | 0.00 | 0.00 | 83 | 1021.8 |
| 20260506122535 | 13 | 266 | 0.0 | 0.0 | 0.00 | 0.00 | 0.00 | 84 | 1021.7 |
| 20260506122033 | 13 | 267 | 0.0 | 0.0 | 0.00 | 0.00 | 0.00 | 84 | 1021.7 |
| 20260506121531 | 13 | 267 | 0.0 | 0.0 | 0.00 | 0.00 | 0.00 | 84 | 1021.9 |
| 20260506121027 | 13 | 267 | 0.0 | 0.0 | 0.00 | 0.00 | 0.00 | 84 | 1021.5 |
| 20260506120525 | 13 | 267 | 0.0 | 0.0 | 0.00 | 0.00 | 0.00 | 83 | 1021.5 |
| 20260506120022 | 13 | 270 | 1.6 | 1.6 | 0.00 | 0.00 | 0.00 | 83 | 1021.4 |